createdAt,value
2023-05-18T00:02:09.978Z,10.20
2023-05-18T00:05:37.133Z,13.20
2023-05-18T00:09:04.237Z,10.20
2023-05-18T00:12:31.221Z,13.70
2023-05-18T00:15:58.269Z,9.70
2023-05-18T00:19:26.384Z,16.30
2023-05-18T00:22:55.349Z,13.80
2023-05-18T00:26:22.340Z,15.60
2023-05-18T00:29:50.488Z,10.90
2023-05-18T00:33:17.912Z,10.60
2023-05-18T00:36:44.915Z,10.10
2023-05-18T00:40:14.953Z,15.30
2023-05-18T00:43:44.863Z,13.30
2023-05-18T00:47:12.011Z,12.00
2023-05-18T00:50:39.665Z,9.70
2023-05-18T00:54:08.217Z,14.30
2023-05-18T00:57:36.978Z,11.90
2023-05-18T01:01:06.380Z,10.20
2023-05-18T01:04:34.545Z,10.20
2023-05-18T01:08:03.316Z,9.10
2023-05-18T01:11:42.127Z,8.90
2023-05-18T01:15:15.028Z,15.90
2023-05-18T01:18:49.576Z,8.60
2023-05-18T01:22:33.811Z,9.90
2023-05-18T01:26:26.530Z,11.70
2023-05-18T01:29:57.411Z,10.70
2023-05-18T01:33:24.898Z,10.20
2023-05-18T01:36:51.704Z,11.20
2023-05-18T01:40:18.797Z,12.00
2023-05-18T01:43:54.248Z,13.20
2023-05-18T01:47:21.848Z,9.40
2023-05-18T01:50:53.734Z,12.80
2023-05-18T01:54:23.975Z,12.20
2023-05-18T01:57:54.109Z,11.80
2023-05-18T02:01:23.364Z,8.80
2023-05-18T02:04:50.876Z,8.60
2023-05-18T02:08:18.333Z,10.50
2023-05-18T02:11:47.125Z,8.70
2023-05-18T02:15:14.513Z,11.70
2023-05-18T02:18:41.736Z,10.60
2023-05-18T02:22:09.635Z,12.10
2023-05-18T02:25:37.418Z,9.00
2023-05-18T02:29:04.407Z,12.50
2023-05-18T02:32:33.720Z,9.40
2023-05-18T02:36:01.324Z,13.20
2023-05-18T02:39:27.890Z,8.70
2023-05-18T02:42:57.355Z,12.20
2023-05-18T02:46:26.116Z,9.20
2023-05-18T02:49:53.256Z,9.70
2023-05-18T02:53:20.369Z,8.20
2023-05-18T02:56:48.032Z,6.70
2023-05-18T03:00:23.703Z,9.60
2023-05-18T03:03:53.414Z,10.60
2023-05-18T03:07:20.894Z,10.00
2023-05-18T03:10:48.072Z,6.90
2023-05-18T03:14:15.159Z,10.20
2023-05-18T03:17:44.098Z,8.80
2023-05-18T03:21:14.051Z,12.10
2023-05-18T03:24:41.604Z,10.80
2023-05-18T03:28:13.038Z,7.90
2023-05-18T03:31:40.599Z,9.20
2023-05-18T03:35:09.843Z,8.00
2023-05-18T03:38:36.679Z,9.30
2023-05-18T03:42:08.054Z,12.40
2023-05-18T03:45:35.077Z,11.30
2023-05-18T03:49:03.667Z,9.70
2023-05-18T03:52:35.273Z,14.40
2023-05-18T03:56:02.089Z,14.20
2023-05-18T03:59:30.037Z,12.70
2023-05-18T04:02:57.847Z,7.50
2023-05-18T04:06:26.425Z,17.10
2023-05-18T04:09:53.907Z,8.70
2023-05-18T04:13:20.763Z,14.40
2023-05-18T04:16:48.148Z,10.50
2023-05-18T04:20:16.446Z,12.80
2023-05-18T04:23:43.163Z,10.00
2023-05-18T04:27:12.363Z,13.90
2023-05-18T04:30:39.815Z,7.80
2023-05-18T04:34:09.301Z,9.20
2023-05-18T04:37:36.835Z,9.30
2023-05-18T04:41:06.898Z,9.30
2023-05-18T04:44:35.019Z,10.90
2023-05-18T04:48:03.273Z,8.70
2023-05-18T04:51:30.039Z,7.20
2023-05-18T04:54:57.372Z,8.40
2023-05-18T04:58:23.943Z,13.10
2023-05-18T05:01:50.670Z,9.90
2023-05-18T05:05:18.836Z,7.60
2023-05-18T05:08:45.810Z,12.40
2023-05-18T05:12:13.942Z,6.60
2023-05-18T05:15:40.861Z,6.90
2023-05-18T05:19:07.690Z,6.90
2023-05-18T05:22:35.180Z,7.80
2023-05-18T05:26:04.374Z,11.50
2023-05-18T05:29:31.829Z,9.20
2023-05-18T05:33:00.666Z,8.00
2023-05-18T05:36:28.551Z,6.50
2023-05-18T05:39:56.854Z,9.10
2023-05-18T05:43:23.712Z,8.90
2023-05-18T05:46:51.483Z,9.60
2023-05-18T05:50:19.413Z,9.00
2023-05-18T05:53:49.730Z,5.90
2023-05-18T05:57:17.918Z,7.60
2023-05-18T06:00:46.478Z,8.40
2023-05-18T06:04:16.232Z,8.40
2023-05-18T06:07:43.643Z,9.20
2023-05-18T06:11:11.470Z,8.30
2023-05-18T06:14:39.870Z,7.90
2023-05-18T06:18:07.381Z,6.30
2023-05-18T06:21:35.585Z,5.30
2023-05-18T06:25:03.571Z,5.20
2023-05-18T06:28:53.593Z,6.30
2023-05-18T06:32:31.471Z,6.70
2023-05-18T06:35:59.210Z,6.00
2023-05-18T06:39:26.684Z,5.20
2023-05-18T06:42:53.461Z,7.20
2023-05-18T06:46:41.735Z,8.40
2023-05-18T06:50:15.440Z,8.00
2023-05-18T06:53:42.737Z,4.10
2023-05-18T06:57:11.088Z,6.10
2023-05-18T07:00:39.375Z,3.10
2023-05-18T07:04:08.167Z,6.20
2023-05-18T07:07:34.883Z,5.00
2023-05-18T07:11:02.769Z,4.20
2023-05-18T07:14:29.644Z,3.80
2023-05-18T07:17:58.087Z,2.80
2023-05-18T07:21:25.156Z,3.00
2023-05-18T07:24:52.546Z,4.10
2023-05-18T07:28:19.515Z,3.90
2023-05-18T07:31:46.613Z,4.50
2023-05-18T07:35:13.464Z,5.30
2023-05-18T07:38:40.376Z,1.80
2023-05-18T07:42:08.284Z,1.70
2023-05-18T07:45:35.738Z,1.70
2023-05-18T07:49:04.841Z,2.20
2023-05-18T07:52:32.173Z,1.00
2023-05-18T07:55:59.334Z,2.20
2023-05-18T07:59:25.860Z,2.20
2023-05-18T08:02:53.398Z,1.70
2023-05-18T08:06:20.773Z,2.70
2023-05-18T08:09:47.938Z,4.20
2023-05-18T08:13:15.513Z,2.60
2023-05-18T08:16:42.982Z,5.00
2023-05-18T08:20:12.855Z,3.20
2023-05-18T08:23:40.348Z,5.80
2023-05-18T08:27:10.277Z,3.00
2023-05-18T08:30:37.181Z,6.70
2023-05-18T08:34:04.134Z,4.60
2023-05-18T08:37:32.517Z,1.80
2023-05-18T08:41:09.792Z,1.40
2023-05-18T08:44:45.934Z,1.30
2023-05-18T08:48:14.871Z,2.40
2023-05-18T08:51:47.514Z,4.30
2023-05-18T08:55:16.792Z,4.00
2023-05-18T08:58:50.151Z,2.00
2023-05-18T09:05:44.246Z,3.10
2023-05-18T09:09:11.400Z,4.60
2023-05-18T09:12:40.314Z,2.30
2023-05-18T09:16:08.385Z,8.10
2023-05-18T09:19:35.474Z,7.10
2023-05-18T09:23:02.801Z,4.00
2023-05-18T09:26:29.719Z,3.30
2023-05-18T09:29:58.031Z,9.00
2023-05-18T09:33:25.285Z,3.70
2023-05-18T09:36:54.288Z,3.40
2023-05-18T09:40:29.456Z,2.90
2023-05-18T09:43:57.995Z,3.50
2023-05-18T09:47:29.076Z,4.50
2023-05-18T09:50:55.973Z,4.00
2023-05-18T09:54:24.442Z,3.50
2023-05-18T09:57:52.080Z,1.80
2023-05-18T10:01:19.163Z,2.40
2023-05-18T10:04:48.435Z,1.80
2023-05-18T10:08:17.969Z,2.40
2023-05-18T10:11:45.219Z,3.30
2023-05-18T10:15:18.401Z,1.90
2023-05-18T10:18:47.413Z,3.00
2023-05-18T10:22:17.185Z,4.90
2023-05-18T10:25:47.089Z,3.50
2023-05-18T10:29:14.854Z,2.00
2023-05-18T10:32:44.161Z,2.10
2023-05-18T10:36:13.032Z,3.60
2023-05-18T10:39:41.414Z,5.60
2023-05-18T10:43:09.717Z,1.80
2023-05-18T10:46:38.592Z,1.70
2023-05-18T10:50:08.396Z,2.10
2023-05-18T10:53:36.960Z,3.60
2023-05-18T10:57:03.965Z,4.20
2023-05-18T11:00:32.218Z,2.80
2023-05-18T11:04:03.394Z,2.30
2023-05-18T11:07:31.785Z,1.20
2023-05-18T11:11:08.053Z,3.20
2023-05-18T11:14:35.806Z,5.50
2023-05-18T11:49:29.216Z,2.70
2023-05-18T11:52:53.561Z,1.00
2023-05-18T11:56:17.232Z,2.90
2023-05-18T11:59:42.804Z,4.50
2023-05-18T12:03:08.288Z,2.50
2023-05-18T12:06:32.320Z,5.00
2023-05-18T12:10:03.703Z,2.60
2023-05-18T12:13:29.085Z,2.60
2023-05-18T12:16:53.881Z,2.00
2023-05-18T12:20:19.053Z,4.10
2023-05-18T12:23:42.347Z,3.30
2023-05-18T12:27:08.885Z,2.80
2023-05-18T12:30:35.016Z,1.50
2023-05-18T12:34:01.602Z,2.00
2023-05-18T12:37:34.291Z,2.00
2023-05-18T12:41:01.732Z,2.40
2023-05-18T12:44:25.575Z,2.00
2023-05-18T12:47:53.877Z,4.90
2023-05-18T12:51:20.680Z,1.50
2023-05-18T12:54:54.761Z,3.50
2023-05-18T12:58:23.724Z,6.00
2023-05-18T13:01:49.035Z,0.60
2023-05-18T13:05:14.518Z,1.50
2023-05-18T13:08:38.499Z,1.90
2023-05-18T13:12:07.468Z,2.70
2023-05-18T13:15:36.135Z,6.10
2023-05-18T13:19:02.464Z,1.70
2023-05-18T13:22:26.276Z,2.70
2023-05-18T13:25:51.673Z,3.60
2023-05-18T13:29:15.309Z,4.50
2023-05-18T13:32:38.954Z,2.30
2023-05-18T13:36:02.725Z,3.90
2023-05-18T13:39:26.372Z,2.80
2023-05-18T13:42:49.661Z,2.20
2023-05-18T13:46:13.010Z,1.80
2023-05-18T13:49:36.680Z,2.90
2023-05-18T13:53:01.094Z,4.30
2023-05-18T13:56:24.605Z,3.10
2023-05-18T13:59:48.035Z,2.60
2023-05-18T14:03:11.705Z,1.20
2023-05-18T14:06:35.684Z,2.50
2023-05-18T14:09:58.976Z,4.50
2023-05-18T14:13:22.469Z,1.80
2023-05-18T14:16:45.768Z,1.20
2023-05-18T14:20:11.028Z,1.30
2023-05-18T14:23:34.319Z,3.00
2023-05-18T14:26:57.737Z,1.80
2023-05-18T14:30:21.335Z,4.00
2023-05-18T14:33:44.658Z,4.70
2023-05-18T14:37:08.503Z,4.30
2023-05-18T14:40:32.089Z,1.20
2023-05-18T14:43:56.214Z,2.00
2023-05-18T14:47:19.633Z,4.50
2023-05-18T14:50:43.362Z,2.80
2023-05-18T14:54:07.092Z,2.70
2023-05-18T14:57:31.157Z,2.50
2023-05-18T15:00:55.721Z,3.00
2023-05-18T15:04:21.399Z,3.10
2023-05-18T15:07:44.977Z,2.90
2023-05-18T15:11:08.726Z,1.50
2023-05-18T15:14:32.618Z,1.30
2023-05-18T15:17:56.499Z,2.60
2023-05-18T15:21:19.954Z,5.00
2023-05-18T15:24:45.690Z,1.20
2023-05-18T15:28:10.838Z,5.70
2023-05-18T15:31:37.320Z,3.30
2023-05-18T15:35:01.079Z,2.00
2023-05-18T15:38:25.416Z,2.00
2023-05-18T15:41:49.490Z,2.20
2023-05-18T15:45:13.697Z,1.40
2023-05-18T15:48:37.542Z,2.40
2023-05-18T15:52:05.155Z,1.40
2023-05-18T15:55:29.043Z,2.80
2023-05-18T15:58:52.142Z,1.50
2023-05-18T16:02:18.545Z,3.60
2023-05-18T16:05:43.091Z,1.00
2023-05-18T16:09:09.081Z,2.40
2023-05-18T16:12:32.762Z,2.20
2023-05-18T16:19:18.236Z,3.30
2023-05-18T16:22:42.430Z,2.60
2023-05-18T16:26:06.047Z,2.30
2023-05-18T16:29:29.299Z,2.30
2023-05-18T16:32:53.688Z,1.30
2023-05-18T16:36:18.082Z,2.40
2023-05-18T16:39:42.120Z,2.00
2023-05-18T16:43:06.440Z,2.90
2023-05-18T16:46:29.809Z,5.00
2023-05-18T16:49:53.812Z,0.80
2023-05-18T16:53:17.171Z,2.50
2023-05-18T16:56:40.617Z,4.20
2023-05-18T17:00:09.511Z,1.40
2023-05-18T17:03:36.311Z,3.20
2023-05-18T17:07:01.909Z,5.50
2023-05-18T17:10:27.022Z,2.30
2023-05-18T17:13:52.509Z,5.10
2023-05-18T17:17:16.210Z,3.20
2023-05-18T17:20:39.449Z,1.50
2023-05-18T17:24:03.042Z,2.80
2023-05-18T17:27:26.577Z,2.60
2023-05-18T17:30:52.236Z,4.90
2023-05-18T17:34:15.752Z,2.70
2023-05-18T17:37:46.048Z,6.50
2023-05-18T17:41:10.954Z,6.10
2023-05-18T17:44:37.003Z,3.90
2023-05-18T17:48:01.128Z,6.00
2023-05-18T17:51:25.934Z,2.80
2023-05-18T17:54:51.772Z,2.20
2023-05-18T17:58:17.858Z,4.10
2023-05-18T18:01:42.582Z,2.30
2023-05-18T18:05:06.546Z,2.30
2023-05-18T18:08:30.183Z,1.80
2023-05-18T18:11:56.622Z,1.30
2023-05-18T18:15:22.167Z,4.00
2023-05-18T18:18:46.028Z,3.70
2023-05-18T18:22:10.626Z,4.50
2023-05-18T18:25:34.765Z,2.80
2023-05-18T18:29:01.342Z,2.80
2023-05-18T18:32:25.081Z,2.90
2023-05-18T18:35:49.867Z,2.20
2023-05-18T18:39:16.787Z,5.20
2023-05-18T18:42:41.291Z,2.50
2023-05-18T18:46:05.143Z,3.80
2023-05-18T18:49:30.337Z,6.90
2023-05-18T18:52:53.924Z,4.30
2023-05-18T18:56:21.731Z,7.50
2023-05-18T18:59:46.821Z,6.40
2023-05-18T19:03:10.135Z,5.20
2023-05-18T19:06:36.495Z,2.20
2023-05-18T19:10:01.803Z,2.90
2023-05-18T19:13:25.641Z,7.70
2023-05-18T19:16:49.829Z,5.20
2023-05-18T19:20:13.929Z,7.40
2023-05-18T19:23:39.174Z,3.40
2023-05-18T19:27:03.631Z,5.20
2023-05-18T19:30:29.121Z,7.10
2023-05-18T19:33:55.529Z,3.00
2023-05-18T19:37:21.119Z,2.50
2023-05-18T19:40:47.068Z,4.80
2023-05-18T19:44:16.734Z,3.30
2023-05-18T19:47:41.275Z,5.60
2023-05-18T19:51:06.967Z,6.40
2023-05-18T19:54:32.557Z,6.70
2023-05-18T19:57:58.102Z,10.40
2023-05-18T20:01:24.884Z,2.90
2023-05-18T20:04:49.802Z,3.00
2023-05-18T20:08:14.656Z,4.60
2023-05-18T20:11:39.097Z,4.00
2023-05-18T20:15:03.728Z,5.00
2023-05-18T20:18:28.743Z,6.50
2023-05-18T20:21:53.852Z,2.20
2023-05-18T20:25:20.079Z,5.40
2023-05-18T20:28:43.411Z,3.40
2023-05-18T20:32:09.391Z,5.50
2023-05-18T20:35:34.206Z,2.90
2023-05-18T20:39:02.066Z,3.10
2023-05-18T20:42:38.237Z,2.70
2023-05-18T20:46:04.261Z,2.80
2023-05-18T20:49:28.033Z,3.20
2023-05-18T20:52:52.787Z,6.10
2023-05-18T20:56:17.733Z,2.70
2023-05-18T20:59:43.649Z,4.80
2023-05-18T21:03:08.020Z,5.00
2023-05-18T21:06:40.496Z,4.80
2023-05-18T21:10:11.528Z,6.20
2023-05-18T21:13:36.627Z,6.70
2023-05-18T21:17:01.220Z,5.00
2023-05-18T21:20:26.320Z,4.80
2023-05-18T21:23:49.907Z,7.80
2023-05-18T21:27:13.683Z,3.10
2023-05-18T21:30:37.741Z,4.30
2023-05-18T21:34:04.909Z,4.50
2023-05-18T21:37:30.944Z,2.90
2023-05-18T21:40:56.232Z,3.40
2023-05-18T21:44:20.833Z,3.90
2023-05-18T21:47:45.826Z,5.10
2023-05-18T21:51:18.557Z,6.50
2023-05-18T21:54:43.643Z,5.80
2023-05-18T21:58:07.079Z,3.30
2023-05-18T22:01:31.190Z,5.80
2023-05-18T22:04:55.025Z,5.20
2023-05-18T22:08:19.714Z,3.60
2023-05-18T22:11:43.929Z,4.80
2023-05-18T22:15:10.524Z,4.90
2023-05-18T22:18:36.997Z,4.30
2023-05-18T22:25:24.877Z,4.50
2023-05-18T22:28:48.626Z,2.30
2023-05-18T22:32:12.554Z,3.30
2023-05-18T22:35:36.750Z,5.50
2023-05-18T22:39:00.343Z,3.20
2023-05-18T22:42:23.913Z,6.00
2023-05-18T22:45:47.941Z,2.80
2023-05-18T22:49:11.686Z,5.60
2023-05-18T22:52:36.369Z,2.70
2023-05-18T22:55:59.986Z,3.90
2023-05-18T22:59:23.623Z,6.80
2023-05-18T23:02:46.819Z,3.60
2023-05-18T23:09:32.869Z,4.10
2023-05-18T23:12:57.869Z,4.50
2023-05-18T23:16:22.109Z,5.10
2023-05-18T23:19:47.885Z,5.40
2023-05-18T23:23:11.310Z,4.00
2023-05-18T23:29:57.488Z,5.70
2023-05-18T23:33:22.291Z,3.40
2023-05-18T23:36:48.097Z,3.40
2023-05-18T23:40:16.896Z,4.00
2023-05-18T23:43:41.789Z,7.80
2023-05-18T23:47:06.204Z,4.40
2023-05-18T23:50:30.965Z,7.90
2023-05-18T23:53:55.930Z,5.80
2023-05-18T23:57:20.592Z,4.70
